sensor_id;sensor_type;location;lat;lon;timestamp;P1;durP1;ratioP1;P2;durP2;ratioP2
9108;SDS011;4590;51.462;6.692;2022-09-03T00:05:00;1.52;;;0.95;;
9108;SDS011;4590;51.462;6.692;2022-09-03T00:07:53;2.03;;;0.90;;
9108;SDS011;4590;51.462;6.692;2022-09-03T00:13:30;1.50;;;0.85;;
9108;SDS011;4590;51.462;6.692;2022-09-03T00:16:00;1.83;;;1.02;;
9108;SDS011;4590;51.462;6.692;2022-09-03T00:18:34;1.75;;;0.90;;
9108;SDS011;4590;51.462;6.692;2022-09-03T00:21:02;1.67;;;0.80;;
9108;SDS011;4590;51.462;6.692;2022-09-03T00:23:33;1.50;;;1.08;;
9108;SDS011;4590;51.462;6.692;2022-09-03T00:31:15;1.50;;;1.00;;
9108;SDS011;4590;51.462;6.692;2022-09-03T00:33:51;1.67;;;0.90;;
9108;SDS011;4590;51.462;6.692;2022-09-03T00:36:25;2.38;;;0.98;;
9108;SDS011;4590;51.462;6.692;2022-09-03T00:38:56;1.33;;;0.80;;
9108;SDS011;4590;51.462;6.692;2022-09-03T00:46:57;1.02;;;0.70;;
9108;SDS011;4590;51.462;6.692;2022-09-03T00:52:31;1.88;;;1.08;;
9108;SDS011;4590;51.462;6.692;2022-09-03T00:55:14;2.00;;;0.82;;
9108;SDS011;4590;51.462;6.692;2022-09-03T01:00:40;2.20;;;0.90;;
9108;SDS011;4590;51.462;6.692;2022-09-03T01:11:29;2.22;;;1.00;;
9108;SDS011;4590;51.462;6.692;2022-09-03T01:19:51;2.83;;;0.90;;
9108;SDS011;4590;51.462;6.692;2022-09-03T01:22:36;2.35;;;0.90;;
9108;SDS011;4590;51.462;6.692;2022-09-03T01:30:44;2.03;;;1.00;;
9108;SDS011;4590;51.462;6.692;2022-09-03T01:33:25;2.20;;;1.23;;
9108;SDS011;4590;51.462;6.692;2022-09-03T01:36:13;2.10;;;1.40;;
9108;SDS011;4590;51.462;6.692;2022-09-03T01:38:58;3.63;;;1.67;;
9108;SDS011;4590;51.462;6.692;2022-09-03T01:47:04;2.53;;;1.20;;
9108;SDS011;4590;51.462;6.692;2022-09-03T01:55:29;2.13;;;1.30;;
9108;SDS011;4590;51.462;6.692;2022-09-03T02:00:59;2.70;;;1.23;;
9108;SDS011;4590;51.462;6.692;2022-09-03T02:03:35;2.50;;;1.48;;
9108;SDS011;4590;51.462;6.692;2022-09-03T02:06:03;2.83;;;1.30;;
9108;SDS011;4590;51.462;6.692;2022-09-03T02:08:31;2.30;;;1.30;;
9108;SDS011;4590;51.462;6.692;2022-09-03T02:10:57;6.75;;;1.55;;
9108;SDS011;4590;51.462;6.692;2022-09-03T02:13:30;1.75;;;1.02;;
9108;SDS011;4590;51.462;6.692;2022-09-03T02:16:01;2.13;;;1.38;;
9108;SDS011;4590;51.462;6.692;2022-09-03T02:18:32;1.75;;;1.08;;
9108;SDS011;4590;51.462;6.692;2022-09-03T02:21:02;2.28;;;1.40;;
9108;SDS011;4590;51.462;6.692;2022-09-03T02:23:29;1.38;;;1.10;;
9108;SDS011;4590;51.462;6.692;2022-09-03T02:25:56;1.95;;;1.17;;
9108;SDS011;4590;51.462;6.692;2022-09-03T02:28:24;4.18;;;1.33;;
9108;SDS011;4590;51.462;6.692;2022-09-03T02:30:50;4.13;;;1.10;;
9108;SDS011;4590;51.462;6.692;2022-09-03T02:33:16;2.25;;;1.10;;
9108;SDS011;4590;51.462;6.692;2022-09-03T02:35:41;2.72;;;1.27;;
9108;SDS011;4590;51.462;6.692;2022-09-03T02:40:37;1.90;;;0.90;;
9108;SDS011;4590;51.462;6.692;2022-09-03T02:45:29;3.67;;;1.48;;
9108;SDS011;4590;51.462;6.692;2022-09-03T02:47:56;3.80;;;1.40;;
9108;SDS011;4590;51.462;6.692;2022-09-03T02:50:24;7.32;;;1.58;;
9108;SDS011;4590;51.462;6.692;2022-09-03T02:52:49;2.22;;;1.20;;
9108;SDS011;4590;51.462;6.692;2022-09-03T02:55:15;4.82;;;1.20;;
9108;SDS011;4590;51.462;6.692;2022-09-03T02:57:41;2.45;;;1.20;;
9108;SDS011;4590;51.462;6.692;2022-09-03T03:00:07;1.88;;;1.23;;
9108;SDS011;4590;51.462;6.692;2022-09-03T03:02:32;3.22;;;1.25;;
9108;SDS011;4590;51.462;6.692;2022-09-03T03:04:58;2.58;;;1.42;;
9108;SDS011;4590;51.462;6.692;2022-09-03T03:07:23;2.07;;;1.10;;
9108;SDS011;4590;51.462;6.692;2022-09-03T03:09:50;2.30;;;1.10;;
9108;SDS011;4590;51.462;6.692;2022-09-03T03:12:15;2.92;;;1.30;;
9108;SDS011;4590;51.462;6.692;2022-09-03T03:14:41;2.17;;;1.08;;
9108;SDS011;4590;51.462;6.692;2022-09-03T03:17:07;1.98;;;1.13;;
9108;SDS011;4590;51.462;6.692;2022-09-03T03:19:32;2.83;;;1.27;;
9108;SDS011;4590;51.462;6.692;2022-09-03T03:21:58;2.22;;;1.15;;
9108;SDS011;4590;51.462;6.692;2022-09-03T03:24:23;3.17;;;1.33;;
9108;SDS011;4590;51.462;6.692;2022-09-03T03:26:48;2.37;;;1.13;;
9108;SDS011;4590;51.462;6.692;2022-09-03T03:29:14;4.28;;;1.65;;
9108;SDS011;4590;51.462;6.692;2022-09-03T03:31:44;2.75;;;1.20;;
9108;SDS011;4590;51.462;6.692;2022-09-03T03:34:09;3.10;;;1.30;;
9108;SDS011;4590;51.462;6.692;2022-09-03T03:36:35;1.88;;;1.00;;
9108;SDS011;4590;51.462;6.692;2022-09-03T03:39:01;2.47;;;1.20;;
9108;SDS011;4590;51.462;6.692;2022-09-03T03:43:55;3.28;;;1.27;;
9108;SDS011;4590;51.462;6.692;2022-09-03T03:46:22;2.65;;;1.20;;
9108;SDS011;4590;51.462;6.692;2022-09-03T03:48:52;3.85;;;1.45;;
9108;SDS011;4590;51.462;6.692;2022-09-03T03:51:17;3.00;;;1.25;;
9108;SDS011;4590;51.462;6.692;2022-09-03T03:53:43;2.40;;;1.15;;
9108;SDS011;4590;51.462;6.692;2022-09-03T03:56:10;1.83;;;1.17;;
9108;SDS011;4590;51.462;6.692;2022-09-03T03:58:38;3.20;;;1.52;;
9108;SDS011;4590;51.462;6.692;2022-09-03T04:01:15;3.25;;;1.20;;
9108;SDS011;4590;51.462;6.692;2022-09-03T04:03:41;2.83;;;1.20;;
9108;SDS011;4590;51.462;6.692;2022-09-03T04:06:07;3.65;;;1.40;;
9108;SDS011;4590;51.462;6.692;2022-09-03T04:08:38;2.10;;;1.25;;
9108;SDS011;4590;51.462;6.692;2022-09-03T04:11:05;3.00;;;1.55;;
9108;SDS011;4590;51.462;6.692;2022-09-03T04:13:33;4.38;;;1.60;;
9108;SDS011;4590;51.462;6.692;2022-09-03T04:16:10;3.22;;;1.60;;
9108;SDS011;4590;51.462;6.692;2022-09-03T04:18:41;2.45;;;1.45;;
9108;SDS011;4590;51.462;6.692;2022-09-03T04:21:07;3.93;;;1.80;;
9108;SDS011;4590;51.462;6.692;2022-09-03T04:23:38;3.13;;;1.70;;
9108;SDS011;4590;51.462;6.692;2022-09-03T04:26:06;3.30;;;1.50;;
9108;SDS011;4590;51.462;6.692;2022-09-03T04:28:33;4.15;;;1.83;;
9108;SDS011;4590;51.462;6.692;2022-09-03T04:31:00;3.30;;;1.40;;
9108;SDS011;4590;51.462;6.692;2022-09-03T04:33:29;3.10;;;1.40;;
9108;SDS011;4590;51.462;6.692;2022-09-03T04:36:03;2.92;;;1.40;;
9108;SDS011;4590;51.462;6.692;2022-09-03T04:38:29;3.63;;;1.23;;
9108;SDS011;4590;51.462;6.692;2022-09-03T04:40:56;4.35;;;1.30;;
9108;SDS011;4590;51.462;6.692;2022-09-03T04:43:22;2.22;;;1.38;;
9108;SDS011;4590;51.462;6.692;2022-09-03T04:45:47;2.17;;;1.23;;
9108;SDS011;4590;51.462;6.692;2022-09-03T04:48:12;6.03;;;1.50;;
9108;SDS011;4590;51.462;6.692;2022-09-03T04:50:37;5.57;;;1.30;;
9108;SDS011;4590;51.462;6.692;2022-09-03T04:53:03;2.60;;;1.30;;
9108;SDS011;4590;51.462;6.692;2022-09-03T04:57:58;3.47;;;1.20;;
9108;SDS011;4590;51.462;6.692;2022-09-03T05:00:23;4.73;;;1.43;;
9108;SDS011;4590;51.462;6.692;2022-09-03T05:02:49;3.70;;;1.20;;
9108;SDS011;4590;51.462;6.692;2022-09-03T05:05:15;5.32;;;1.50;;
9108;SDS011;4590;51.462;6.692;2022-09-03T05:07:41;2.30;;;1.20;;
9108;SDS011;4590;51.462;6.692;2022-09-03T05:10:08;3.40;;;1.30;;
9108;SDS011;4590;51.462;6.692;2022-09-03T05:12:40;3.70;;;1.33;;
9108;SDS011;4590;51.462;6.692;2022-09-03T05:15:06;3.03;;;1.48;;
9108;SDS011;4590;51.462;6.692;2022-09-03T05:17:32;3.22;;;1.67;;
9108;SDS011;4590;51.462;6.692;2022-09-03T05:19:57;5.30;;;1.67;;
9108;SDS011;4590;51.462;6.692;2022-09-03T05:22:22;2.10;;;1.20;;
9108;SDS011;4590;51.462;6.692;2022-09-03T05:24:48;4.77;;;1.47;;
9108;SDS011;4590;51.462;6.692;2022-09-03T05:29:40;3.57;;;1.53;;
9108;SDS011;4590;51.462;6.692;2022-09-03T05:32:06;4.10;;;1.50;;
9108;SDS011;4590;51.462;6.692;2022-09-03T05:34:31;4.70;;;1.40;;
9108;SDS011;4590;51.462;6.692;2022-09-03T05:36:57;7.77;;;1.63;;
9108;SDS011;4590;51.462;6.692;2022-09-03T05:39:22;3.67;;;1.67;;
9108;SDS011;4590;51.462;6.692;2022-09-03T05:41:47;3.40;;;1.10;;
9108;SDS011;4590;51.462;6.692;2022-09-03T05:44:16;3.72;;;1.50;;
9108;SDS011;4590;51.462;6.692;2022-09-03T05:46:41;2.38;;;1.23;;
9108;SDS011;4590;51.462;6.692;2022-09-03T05:49:07;4.07;;;1.70;;
9108;SDS011;4590;51.462;6.692;2022-09-03T05:51:33;4.18;;;1.30;;
9108;SDS011;4590;51.462;6.692;2022-09-03T05:54:00;4.22;;;1.67;;
9108;SDS011;4590;51.462;6.692;2022-09-03T05:56:27;4.55;;;1.38;;
9108;SDS011;4590;51.462;6.692;2022-09-03T05:58:55;3.10;;;1.50;;
9108;SDS011;4590;51.462;6.692;2022-09-03T06:01:26;2.97;;;1.20;;
9108;SDS011;4590;51.462;6.692;2022-09-03T06:03:57;2.42;;;1.23;;
9108;SDS011;4590;51.462;6.692;2022-09-03T06:06:24;3.03;;;1.48;;
9108;SDS011;4590;51.462;6.692;2022-09-03T06:08:55;2.72;;;1.10;;
9108;SDS011;4590;51.462;6.692;2022-09-03T06:11:25;3.97;;;1.60;;
9108;SDS011;4590;51.462;6.692;2022-09-03T06:13:53;2.55;;;1.40;;
9108;SDS011;4590;51.462;6.692;2022-09-03T06:16:20;5.07;;;1.40;;
9108;SDS011;4590;51.462;6.692;2022-09-03T06:18:46;3.90;;;1.48;;
9108;SDS011;4590;51.462;6.692;2022-09-03T06:23:39;2.58;;;1.30;;
9108;SDS011;4590;51.462;6.692;2022-09-03T06:26:12;3.58;;;1.65;;
9108;SDS011;4590;51.462;6.692;2022-09-03T06:28:39;2.63;;;1.70;;
9108;SDS011;4590;51.462;6.692;2022-09-03T06:31:08;3.65;;;1.42;;
9108;SDS011;4590;51.462;6.692;2022-09-03T06:33:35;5.05;;;1.55;;
9108;SDS011;4590;51.462;6.692;2022-09-03T06:36:03;3.85;;;1.50;;
9108;SDS011;4590;51.462;6.692;2022-09-03T06:38:30;3.50;;;1.40;;
9108;SDS011;4590;51.462;6.692;2022-09-03T06:40:58;5.07;;;1.77;;
9108;SDS011;4590;51.462;6.692;2022-09-03T06:43:32;2.75;;;1.45;;
9108;SDS011;4590;51.462;6.692;2022-09-03T06:45:59;4.50;;;1.65;;
9108;SDS011;4590;51.462;6.692;2022-09-03T06:48:33;4.30;;;1.60;;
9108;SDS011;4590;51.462;6.692;2022-09-03T06:51:00;4.25;;;1.90;;
9108;SDS011;4590;51.462;6.692;2022-09-03T06:53:31;2.47;;;1.50;;
9108;SDS011;4590;51.462;6.692;2022-09-03T06:56:00;4.50;;;1.60;;
9108;SDS011;4590;51.462;6.692;2022-09-03T06:58:30;6.25;;;1.60;;
9108;SDS011;4590;51.462;6.692;2022-09-03T07:01:03;4.15;;;1.50;;
9108;SDS011;4590;51.462;6.692;2022-09-03T07:03:33;4.20;;;1.80;;
9108;SDS011;4590;51.462;6.692;2022-09-03T07:06:07;4.03;;;1.60;;
9108;SDS011;4590;51.462;6.692;2022-09-03T07:08:35;2.78;;;1.30;;
9108;SDS011;4590;51.462;6.692;2022-09-03T07:11:01;26.65;;;2.72;;
9108;SDS011;4590;51.462;6.692;2022-09-03T07:13:33;3.33;;;1.63;;
9108;SDS011;4590;51.462;6.692;2022-09-03T07:16:21;4.18;;;1.90;;
9108;SDS011;4590;51.462;6.692;2022-09-03T07:18:56;5.68;;;1.92;;
9108;SDS011;4590;51.462;6.692;2022-09-03T07:23:55;4.68;;;1.75;;
9108;SDS011;4590;51.462;6.692;2022-09-03T07:26:28;34.60;;;15.75;;
9108;SDS011;4590;51.462;6.692;2022-09-03T07:28:55;68.40;;;26.95;;
9108;SDS011;4590;51.462;6.692;2022-09-03T07:31:22;30.73;;;15.98;;
9108;SDS011;4590;51.462;6.692;2022-09-03T07:33:49;12.32;;;5.55;;
9108;SDS011;4590;51.462;6.692;2022-09-03T07:36:19;6.55;;;2.78;;
9108;SDS011;4590;51.462;6.692;2022-09-03T07:38:46;10.23;;;1.92;;
9108;SDS011;4590;51.462;6.692;2022-09-03T07:41:12;2.40;;;1.30;;
9108;SDS011;4590;51.462;6.692;2022-09-03T07:43:39;3.78;;;1.13;;
9108;SDS011;4590;51.462;6.692;2022-09-03T07:46:11;2.72;;;1.30;;
9108;SDS011;4590;51.462;6.692;2022-09-03T07:48:41;3.10;;;1.17;;
9108;SDS011;4590;51.462;6.692;2022-09-03T07:51:07;2.15;;;1.10;;
9108;SDS011;4590;51.462;6.692;2022-09-03T07:53:33;2.22;;;1.05;;
9108;SDS011;4590;51.462;6.692;2022-09-03T07:56:00;3.35;;;0.80;;
9108;SDS011;4590;51.462;6.692;2022-09-03T07:58:30;3.30;;;1.00;;
9108;SDS011;4590;51.462;6.692;2022-09-03T08:00:57;3.03;;;0.93;;
9108;SDS011;4590;51.462;6.692;2022-09-03T08:03:23;3.00;;;1.10;;
9108;SDS011;4590;51.462;6.692;2022-09-03T08:05:49;3.47;;;1.20;;
9108;SDS011;4590;51.462;6.692;2022-09-03T08:08:14;2.60;;;1.05;;
9108;SDS011;4590;51.462;6.692;2022-09-03T08:10:40;2.35;;;1.00;;
9108;SDS011;4590;51.462;6.692;2022-09-03T08:13:05;4.07;;;0.98;;
9108;SDS011;4590;51.462;6.692;2022-09-03T08:15:31;2.72;;;1.02;;
9108;SDS011;4590;51.462;6.692;2022-09-03T08:17:57;6.75;;;1.30;;
9108;SDS011;4590;51.462;6.692;2022-09-03T08:20:24;2.78;;;1.33;;
9108;SDS011;4590;51.462;6.692;2022-09-03T08:22:49;2.83;;;1.00;;
9108;SDS011;4590;51.462;6.692;2022-09-03T08:25:15;2.42;;;0.90;;
9108;SDS011;4590;51.462;6.692;2022-09-03T08:27:40;3.15;;;1.00;;
9108;SDS011;4590;51.462;6.692;2022-09-03T08:30:06;2.45;;;0.90;;
9108;SDS011;4590;51.462;6.692;2022-09-03T08:32:35;1.70;;;0.70;;
9108;SDS011;4590;51.462;6.692;2022-09-03T08:35:00;3.75;;;0.93;;
9108;SDS011;4590;51.462;6.692;2022-09-03T08:37:26;3.10;;;1.20;;
9108;SDS011;4590;51.462;6.692;2022-09-03T08:39:52;2.30;;;0.90;;
9108;SDS011;4590;51.462;6.692;2022-09-03T08:42:24;2.08;;;1.00;;
9108;SDS011;4590;51.462;6.692;2022-09-03T08:45:12;3.15;;;1.00;;
9108;SDS011;4590;51.462;6.692;2022-09-03T08:47:44;2.50;;;0.80;;
9108;SDS011;4590;51.462;6.692;2022-09-03T08:58:24;1.92;;;1.00;;
9108;SDS011;4590;51.462;6.692;2022-09-03T09:04:07;2.22;;;0.90;;
9108;SDS011;4590;51.462;6.692;2022-09-03T09:14:51;2.38;;;0.90;;
9108;SDS011;4590;51.462;6.692;2022-09-03T09:17:33;1.80;;;0.80;;
9108;SDS011;4590;51.462;6.692;2022-09-03T09:20:35;2.42;;;0.90;;
9108;SDS011;4590;51.462;6.692;2022-09-03T09:23:06;1.48;;;0.82;;
9108;SDS011;4590;51.462;6.692;2022-09-03T09:25:40;1.42;;;0.75;;
9108;SDS011;4590;51.462;6.692;2022-09-03T09:28:18;1.48;;;0.60;;
9108;SDS011;4590;51.462;6.692;2022-09-03T09:30:46;1.75;;;0.88;;
9108;SDS011;4590;51.462;6.692;2022-09-03T09:33:15;4.47;;;1.02;;
9108;SDS011;4590;51.462;6.692;2022-09-03T09:35:43;1.27;;;0.75;;
9108;SDS011;4590;51.462;6.692;2022-09-03T09:38:09;3.28;;;1.10;;
9108;SDS011;4590;51.462;6.692;2022-09-03T09:40:39;5.60;;;1.00;;
9108;SDS011;4590;51.462;6.692;2022-09-03T09:45:39;1.92;;;0.98;;
9108;SDS011;4590;51.462;6.692;2022-09-03T09:48:15;4.07;;;0.90;;
9108;SDS011;4590;51.462;6.692;2022-09-03T09:50:41;1.30;;;0.77;;
9108;SDS011;4590;51.462;6.692;2022-09-03T09:53:08;2.70;;;0.90;;
9108;SDS011;4590;51.462;6.692;2022-09-03T09:55:54;2.72;;;0.90;;
9108;SDS011;4590;51.462;6.692;2022-09-03T09:58:23;1.90;;;0.90;;
9108;SDS011;4590;51.462;6.692;2022-09-03T10:03:31;2.03;;;0.95;;
9108;SDS011;4590;51.462;6.692;2022-09-03T10:06:07;2.67;;;0.80;;
9108;SDS011;4590;51.462;6.692;2022-09-03T10:11:47;2.08;;;0.80;;
9108;SDS011;4590;51.462;6.692;2022-09-03T10:14:39;1.85;;;0.85;;
9108;SDS011;4590;51.462;6.692;2022-09-03T10:17:13;2.38;;;0.70;;
9108;SDS011;4590;51.462;6.692;2022-09-03T10:19:49;1.90;;;0.77;;
9108;SDS011;4590;51.462;6.692;2022-09-03T10:22:44;3.78;;;1.00;;
9108;SDS011;4590;51.462;6.692;2022-09-03T10:25:16;2.28;;;0.80;;
9108;SDS011;4590;51.462;6.692;2022-09-03T10:27:43;2.03;;;0.93;;
9108;SDS011;4590;51.462;6.692;2022-09-03T10:30:10;2.35;;;1.17;;
9108;SDS011;4590;51.462;6.692;2022-09-03T10:35:23;1.35;;;0.80;;
9108;SDS011;4590;51.462;6.692;2022-09-03T10:37:57;1.30;;;0.73;;
9108;SDS011;4590;51.462;6.692;2022-09-03T10:46:26;0.95;;;0.60;;
9108;SDS011;4590;51.462;6.692;2022-09-03T10:51:58;1.65;;;1.08;;
9108;SDS011;4590;51.462;6.692;2022-09-03T10:54:36;1.75;;;0.90;;
9108;SDS011;4590;51.462;6.692;2022-09-03T10:59:59;3.33;;;0.80;;
9108;SDS011;4590;51.462;6.692;2022-09-03T11:05:45;3.35;;;1.15;;
9108;SDS011;4590;51.462;6.692;2022-09-03T11:08:22;2.42;;;0.95;;
9108;SDS011;4590;51.462;6.692;2022-09-03T11:10:56;3.88;;;1.00;;
9108;SDS011;4590;51.462;6.692;2022-09-03T11:13:33;2.10;;;1.10;;
9108;SDS011;4590;51.462;6.692;2022-09-03T11:16:10;2.00;;;1.00;;
9108;SDS011;4590;51.462;6.692;2022-09-03T11:21:11;1.75;;;1.00;;
9108;SDS011;4590;51.462;6.692;2022-09-03T11:23:46;4.90;;;1.20;;
9108;SDS011;4590;51.462;6.692;2022-09-03T11:26:16;2.13;;;1.00;;
9108;SDS011;4590;51.462;6.692;2022-09-03T11:34:12;1.80;;;1.08;;
9108;SDS011;4590;51.462;6.692;2022-09-03T11:36:39;2.50;;;1.30;;
9108;SDS011;4590;51.462;6.692;2022-09-03T11:39:39;1.90;;;1.20;;
9108;SDS011;4590;51.462;6.692;2022-09-03T11:42:00;2.53;;;1.33;;
9108;SDS011;4590;51.462;6.692;2022-09-03T11:44:34;2.15;;;1.13;;
9108;SDS011;4590;51.462;6.692;2022-09-03T11:47:11;2.67;;;1.20;;
9108;SDS011;4590;51.462;6.692;2022-09-03T11:49:48;2.33;;;1.10;;
9108;SDS011;4590;51.462;6.692;2022-09-03T11:52:25;2.25;;;1.48;;
9108;SDS011;4590;51.462;6.692;2022-09-03T11:54:53;1.85;;;1.15;;
9108;SDS011;4590;51.462;6.692;2022-09-03T11:58:08;3.83;;;1.30;;
9108;SDS011;4590;51.462;6.692;2022-09-03T12:00:14;3.00;;;1.10;;
9108;SDS011;4590;51.462;6.692;2022-09-03T12:02:55;1.83;;;1.10;;
9108;SDS011;4590;51.462;6.692;2022-09-03T12:19:56;2.70;;;1.52;;
9108;SDS011;4590;51.462;6.692;2022-09-03T12:22:25;2.03;;;1.35;;
9108;SDS011;4590;51.462;6.692;2022-09-03T12:24:52;1.70;;;1.42;;
9108;SDS011;4590;51.462;6.692;2022-09-03T12:27:19;2.28;;;1.48;;
9108;SDS011;4590;51.462;6.692;2022-09-03T12:29:58;2.22;;;1.58;;
9108;SDS011;4590;51.462;6.692;2022-09-03T12:32:26;4.75;;;1.75;;
9108;SDS011;4590;51.462;6.692;2022-09-03T12:34:54;2.80;;;1.50;;
9108;SDS011;4590;51.462;6.692;2022-09-03T12:37:24;4.25;;;2.10;;
9108;SDS011;4590;51.462;6.692;2022-09-03T12:39:54;3.03;;;1.65;;
9108;SDS011;4590;51.462;6.692;2022-09-03T12:42:29;2.83;;;1.60;;
9108;SDS011;4590;51.462;6.692;2022-09-03T12:45:04;4.35;;;1.40;;
9108;SDS011;4590;51.462;6.692;2022-09-03T12:47:36;4.45;;;2.15;;
9108;SDS011;4590;51.462;6.692;2022-09-03T12:50:07;6.00;;;2.92;;
9108;SDS011;4590;51.462;6.692;2022-09-03T12:52:35;5.57;;;2.78;;
9108;SDS011;4590;51.462;6.692;2022-09-03T13:00:28;6.35;;;1.80;;
9108;SDS011;4590;51.462;6.692;2022-09-03T13:02:58;4.80;;;1.80;;
9108;SDS011;4590;51.462;6.692;2022-09-03T13:05:39;5.88;;;1.65;;
9108;SDS011;4590;51.462;6.692;2022-09-03T13:08:05;2.25;;;1.25;;
9108;SDS011;4590;51.462;6.692;2022-09-03T13:10:34;3.65;;;1.60;;
9108;SDS011;4590;51.462;6.692;2022-09-03T13:16:16;2.75;;;1.50;;
9108;SDS011;4590;51.462;6.692;2022-09-03T13:27:29;3.67;;;1.83;;
9108;SDS011;4590;51.462;6.692;2022-09-03T13:32:50;3.45;;;1.70;;
9108;SDS011;4590;51.462;6.692;2022-09-03T13:35:26;2.75;;;1.58;;
9108;SDS011;4590;51.462;6.692;2022-09-03T13:40:54;1.83;;;1.20;;
9108;SDS011;4590;51.462;6.692;2022-09-03T13:46:12;2.83;;;1.70;;
9108;SDS011;4590;51.462;6.692;2022-09-03T13:48:44;3.22;;;1.90;;
9108;SDS011;4590;51.462;6.692;2022-09-03T13:54:32;3.13;;;1.60;;
9108;SDS011;4590;51.462;6.692;2022-09-03T13:57:03;2.10;;;1.70;;
9108;SDS011;4590;51.462;6.692;2022-09-03T13:59:42;4.63;;;2.83;;
9108;SDS011;4590;51.462;6.692;2022-09-03T14:02:43;4.88;;;3.42;;
9108;SDS011;4590;51.462;6.692;2022-09-03T14:14:08;2.58;;;1.80;;
9108;SDS011;4590;51.462;6.692;2022-09-03T14:16:46;2.70;;;1.70;;
9108;SDS011;4590;51.462;6.692;2022-09-03T14:22:23;2.30;;;1.63;;
9108;SDS011;4590;51.462;6.692;2022-09-03T14:24:58;3.08;;;2.25;;
9108;SDS011;4590;51.462;6.692;2022-09-03T14:27:28;5.55;;;3.70;;
9108;SDS011;4590;51.462;6.692;2022-09-03T14:30:02;5.50;;;3.30;;
9108;SDS011;4590;51.462;6.692;2022-09-03T14:32:36;5.07;;;3.15;;
9108;SDS011;4590;51.462;6.692;2022-09-03T14:41:05;4.47;;;2.30;;
9108;SDS011;4590;51.462;6.692;2022-09-03T14:44:07;2.35;;;2.00;;
9108;SDS011;4590;51.462;6.692;2022-09-03T15:00:41;6.47;;;5.00;;
9108;SDS011;4590;51.462;6.692;2022-09-03T15:11:14;6.30;;;3.25;;
9108;SDS011;4590;51.462;6.692;2022-09-03T15:16:32;18.63;;;6.95;;
9108;SDS011;4590;51.462;6.692;2022-09-03T15:19:12;16.17;;;7.10;;
9108;SDS011;4590;51.462;6.692;2022-09-03T15:22:00;7.38;;;3.40;;
9108;SDS011;4590;51.462;6.692;2022-09-03T15:28:09;5.35;;;2.97;;
9108;SDS011;4590;51.462;6.692;2022-09-03T15:33:39;11.50;;;4.15;;
9108;SDS011;4590;51.462;6.692;2022-09-03T15:36:42;8.30;;;3.22;;
9108;SDS011;4590;51.462;6.692;2022-09-03T15:39:23;11.70;;;4.18;;
9108;SDS011;4590;51.462;6.692;2022-09-03T15:44:41;11.60;;;5.55;;
9108;SDS011;4590;51.462;6.692;2022-09-03T15:47:12;9.30;;;4.53;;
9108;SDS011;4590;51.462;6.692;2022-09-03T15:50:02;12.50;;;4.18;;
9108;SDS011;4590;51.462;6.692;2022-09-03T15:52:40;8.25;;;3.90;;
9108;SDS011;4590;51.462;6.692;2022-09-03T15:55:13;9.57;;;3.47;;
9108;SDS011;4590;51.462;6.692;2022-09-03T15:58:03;9.70;;;3.63;;
9108;SDS011;4590;51.462;6.692;2022-09-03T16:06:59;5.28;;;1.73;;
9108;SDS011;4590;51.462;6.692;2022-09-03T16:09:35;3.60;;;1.80;;
9108;SDS011;4590;51.462;6.692;2022-09-03T16:12:18;2.92;;;1.80;;
9108;SDS011;4590;51.462;6.692;2022-09-03T16:17:35;2.92;;;1.52;;
9108;SDS011;4590;51.462;6.692;2022-09-03T16:20:13;2.15;;;1.50;;
9108;SDS011;4590;51.462;6.692;2022-09-03T16:22:46;2.97;;;1.40;;
9108;SDS011;4590;51.462;6.692;2022-09-03T16:37:07;2.65;;;1.83;;
9108;SDS011;4590;51.462;6.692;2022-09-03T16:42:38;2.85;;;1.80;;
9108;SDS011;4590;51.462;6.692;2022-09-03T16:50:25;4.05;;;2.20;;
9108;SDS011;4590;51.462;6.692;2022-09-03T16:56:06;3.58;;;1.80;;
9108;SDS011;4590;51.462;6.692;2022-09-03T17:04:37;3.63;;;1.50;;
9108;SDS011;4590;51.462;6.692;2022-09-03T17:09:53;2.55;;;1.50;;
9108;SDS011;4590;51.462;6.692;2022-09-03T17:15:12;3.58;;;1.58;;
9108;SDS011;4590;51.462;6.692;2022-09-03T17:29:02;2.95;;;1.70;;
9108;SDS011;4590;51.462;6.692;2022-09-03T17:34:58;2.17;;;1.35;;
9108;SDS011;4590;51.462;6.692;2022-09-03T17:51:03;2.65;;;1.48;;
9108;SDS011;4590;51.462;6.692;2022-09-03T17:53:45;3.22;;;1.20;;
9108;SDS011;4590;51.462;6.692;2022-09-03T17:59:09;3.03;;;1.10;;
9108;SDS011;4590;51.462;6.692;2022-09-03T18:01:50;1.88;;;1.15;;
9108;SDS011;4590;51.462;6.692;2022-09-03T18:04:28;2.10;;;1.20;;
9108;SDS011;4590;51.462;6.692;2022-09-03T18:09:48;2.28;;;1.17;;
9108;SDS011;4590;51.462;6.692;2022-09-03T18:12:39;2.47;;;1.58;;
9108;SDS011;4590;51.462;6.692;2022-09-03T18:17:57;2.72;;;1.35;;
9108;SDS011;4590;51.462;6.692;2022-09-03T18:20:27;1.70;;;1.20;;
9108;SDS011;4590;51.462;6.692;2022-09-03T18:23:30;1.90;;;1.38;;
9108;SDS011;4590;51.462;6.692;2022-09-03T18:26:26;2.42;;;1.40;;
9108;SDS011;4590;51.462;6.692;2022-09-03T18:29:16;1.50;;;1.30;;
9108;SDS011;4590;51.462;6.692;2022-09-03T18:32:08;1.63;;;1.38;;
9108;SDS011;4590;51.462;6.692;2022-09-03T18:34:51;2.35;;;1.40;;
9108;SDS011;4590;51.462;6.692;2022-09-03T18:37:35;3.90;;;1.42;;
9108;SDS011;4590;51.462;6.692;2022-09-03T18:40:25;1.80;;;1.23;;
9108;SDS011;4590;51.462;6.692;2022-09-03T18:43:19;2.75;;;1.50;;
9108;SDS011;4590;51.462;6.692;2022-09-03T18:52:20;2.63;;;1.60;;
9108;SDS011;4590;51.462;6.692;2022-09-03T18:55:15;2.05;;;1.45;;
9108;SDS011;4590;51.462;6.692;2022-09-03T19:01:10;3.53;;;1.92;;
9108;SDS011;4590;51.462;6.692;2022-09-03T19:04:14;2.53;;;1.70;;
9108;SDS011;4590;51.462;6.692;2022-09-03T19:07:20;3.03;;;1.70;;
9108;SDS011;4590;51.462;6.692;2022-09-03T19:10:16;2.97;;;1.90;;
9108;SDS011;4590;51.462;6.692;2022-09-03T19:13:18;2.42;;;1.52;;
9108;SDS011;4590;51.462;6.692;2022-09-03T19:16:25;4.75;;;1.98;;
9108;SDS011;4590;51.462;6.692;2022-09-03T19:22:34;2.92;;;1.92;;
9108;SDS011;4590;51.462;6.692;2022-09-03T19:25:20;2.83;;;1.92;;
9108;SDS011;4590;51.462;6.692;2022-09-03T19:28:16;2.95;;;2.10;;
9108;SDS011;4590;51.462;6.692;2022-09-03T19:31:05;2.47;;;1.77;;
9108;SDS011;4590;51.462;6.692;2022-09-03T19:37:12;2.65;;;1.50;;
9108;SDS011;4590;51.462;6.692;2022-09-03T19:45:45;3.47;;;1.50;;
9108;SDS011;4590;51.462;6.692;2022-09-03T19:49:00;2.03;;;1.30;;
9108;SDS011;4590;51.462;6.692;2022-09-03T19:52:00;2.45;;;1.70;;
9108;SDS011;4590;51.462;6.692;2022-09-03T19:54:55;5.47;;;1.98;;
9108;SDS011;4590;51.462;6.692;2022-09-03T19:57:41;2.95;;;2.17;;
9108;SDS011;4590;51.462;6.692;2022-09-03T20:00:28;2.80;;;1.80;;
9108;SDS011;4590;51.462;6.692;2022-09-03T20:03:14;3.87;;;1.60;;
9108;SDS011;4590;51.462;6.692;2022-09-03T20:05:59;3.13;;;1.90;;
9108;SDS011;4590;51.462;6.692;2022-09-03T20:08:46;3.35;;;1.50;;
9108;SDS011;4590;51.462;6.692;2022-09-03T20:11:31;2.35;;;1.35;;
9108;SDS011;4590;51.462;6.692;2022-09-03T20:19:26;2.97;;;1.65;;
9108;SDS011;4590;51.462;6.692;2022-09-03T20:30:09;4.10;;;1.52;;
9108;SDS011;4590;51.462;6.692;2022-09-03T20:35:22;2.55;;;1.55;;
9108;SDS011;4590;51.462;6.692;2022-09-03T20:43:57;2.83;;;1.65;;
9108;SDS011;4590;51.462;6.692;2022-09-03T20:52:44;2.72;;;1.52;;
9108;SDS011;4590;51.462;6.692;2022-09-03T20:57:57;3.60;;;1.58;;
9108;SDS011;4590;51.462;6.692;2022-09-03T21:00:26;3.38;;;1.90;;
9108;SDS011;4590;51.462;6.692;2022-09-03T21:03:32;3.78;;;1.40;;
9108;SDS011;4590;51.462;6.692;2022-09-03T21:08:59;2.42;;;1.40;;
9108;SDS011;4590;51.462;6.692;2022-09-03T21:11:37;2.15;;;1.40;;
9108;SDS011;4590;51.462;6.692;2022-09-03T21:24:50;2.45;;;1.58;;
9108;SDS011;4590;51.462;6.692;2022-09-03T21:27:22;2.30;;;1.40;;
9108;SDS011;4590;51.462;6.692;2022-09-03T21:32:28;3.92;;;1.70;;
9108;SDS011;4590;51.462;6.692;2022-09-03T21:35:07;1.85;;;1.40;;
9108;SDS011;4590;51.462;6.692;2022-09-03T21:37:54;3.25;;;1.65;;
9108;SDS011;4590;51.462;6.692;2022-09-03T21:40:25;1.73;;;1.30;;
9108;SDS011;4590;51.462;6.692;2022-09-03T21:42:56;3.35;;;1.55;;
9108;SDS011;4590;51.462;6.692;2022-09-03T21:45:41;4.03;;;1.45;;
9108;SDS011;4590;51.462;6.692;2022-09-03T21:48:19;2.60;;;1.60;;
9108;SDS011;4590;51.462;6.692;2022-09-03T21:50:50;4.97;;;1.85;;
9108;SDS011;4590;51.462;6.692;2022-09-03T21:53:24;2.13;;;1.60;;
9108;SDS011;4590;51.462;6.692;2022-09-03T21:58:59;3.92;;;1.67;;
9108;SDS011;4590;51.462;6.692;2022-09-03T22:04:16;2.97;;;1.60;;
9108;SDS011;4590;51.462;6.692;2022-09-03T22:09:20;2.42;;;1.67;;
9108;SDS011;4590;51.462;6.692;2022-09-03T22:14:34;3.30;;;1.52;;
9108;SDS011;4590;51.462;6.692;2022-09-03T22:17:09;2.78;;;1.70;;